PWSweather.com
Personal Weather Stations
Station Observations
WAIROAHB
Wairoa, Northern Hawkes Bay -NZ 4108

WairoaNorthern Hawkes Bay -NZ 4108

Lat: -39.04516934, Lon: 177.4263989

Elevation: 156

Station Type: WS3083

http://wairoa.net/weather/index.htm

High Low Average
Temperature 80.2°F26.8°C 51.8°F11.0°C 65.3°F18.5°C
Dew Point 63.7°F17.6°C 51.0°F10.6°C 57.6°F14.2°C
Winds 8.3 mph 13.4 kmh Calm Calm 3.0 mph SSW4.8 kmh SSW
Wind Gusts 13.6 mph21.9 kmh -- 5.0 mph8.0 kmh
Humidity 99% 44% 79%
Pressure 30.05 in1017.6 mb 29.87 in1011.5 mb -
Precipitation 0.00 in0.0 mm - -
Hour Temp Dew Point Humidity Winds Wind Gusts Pressure Precip Precip Rate Daily Precip Total
12:00 AM 54.1°F12.3°C 53.3°F11.8°C 97% 3.1 mph NNW5.0 kmh NNW 4.5 mph7.2 kmh 30.04 in1017.3 mb 0.00 in0.0 mm 0.00 in0.0 mm 0.00 in0.0 mm
12:10 AM 54.1°F12.3°C 53.0°F11.7°C 96% 1.6 mph N2.6 kmh N 4.5 mph7.2 kmh 30.03 in1016.9 mb 0.00 in0.0 mm 0.00 in0.0 mm 0.00 in0.0 mm
12:20 AM 54.1°F12.3°C 52.7°F11.5°C 95% 2.2 mph N3.5 kmh N 5.4 mph8.7 kmh 30.03 in1016.9 mb 0.00 in0.0 mm 0.00 in0.0 mm 0.00 in0.0 mm
12:30 AM 54.1°F12.3°C 52.5°F11.4°C 94% 3.8 mph NNW6.1 kmh NNW 5.4 mph8.7 kmh 30.02 in1016.6 mb 0.00 in0.0 mm 0.00 in0.0 mm 0.00 in0.0 mm
12:40 AM 54.3°F12.4°C 52.1°F11.2°C 92% 3.8 mph NNW6.1 kmh NNW 6.9 mph11.1 kmh 30.02 in1016.6 mb 0.00 in0.0 mm 0.00 in0.0 mm 0.00 in0.0 mm
12:50 AM 54.3°F12.4°C 51.8°F11.0°C 91% 3.1 mph NNW5.0 kmh NNW 6.9 mph11.1 kmh 30.01 in1016.3 mb 0.00 in0.0 mm 0.00 in0.0 mm 0.00 in0.0 mm
01:00 AM 54.0°F12.2°C 51.4°F10.8°C 91% 1.6 mph NNW2.6 kmh NNW 5.4 mph8.7 kmh 30.01 in1016.3 mb 0.00 in0.0 mm 0.00 in0.0 mm 0.00 in0.0 mm
01:10 AM 53.6°F12.0°C 51.3°F10.7°C 92% 1.6 mph N2.6 kmh N 3.1 mph5.0 kmh 30.01 in1016.3 mb 0.00 in0.0 mm 0.00 in0.0 mm 0.00 in0.0 mm
01:20 AM 53.4°F11.9°C 51.5°F10.8°C 93% Calm Calm 1.6 mph2.6 kmh 30.01 in1016.3 mb 0.00 in0.0 mm 0.00 in0.0 mm 0.00 in0.0 mm
01:30 AM 53.4°F11.9°C 51.5°F10.8°C 93% Calm Calm -- 30.01 in1016.3 mb 0.00 in0.0 mm 0.00 in0.0 mm 0.00 in0.0 mm
01:40 AM 53.1°F11.7°C 51.4°F10.8°C 94% Calm Calm -- 30.01 in1016.3 mb 0.00 in0.0 mm 0.00 in0.0 mm 0.00 in0.0 mm
01:50 AM 52.7°F11.5°C 51.0°F10.6°C 94% 0.7 mph NNW1.1 kmh NNW 3.8 mph6.1 kmh 30.01 in1016.3 mb 0.00 in0.0 mm 0.00 in0.0 mm 0.00 in0.0 mm
02:00 AM 52.7°F11.5°C 51.3°F10.7°C 95% 3.1 mph NNW5.0 kmh NNW 4.5 mph7.2 kmh 30.00 in1015.9 mb 0.00 in0.0 mm 0.00 in0.0 mm 0.00 in0.0 mm
02:10 AM 52.7°F11.5°C 51.6°F10.9°C 96% 2.2 mph NNW3.5 kmh NNW 4.5 mph7.2 kmh 30.00 in1015.9 mb 0.00 in0.0 mm 0.00 in0.0 mm 0.00 in0.0 mm
02:20 AM 52.5°F11.4°C 51.4°F10.8°C 96% 2.2 mph NNW3.5 kmh NNW 3.8 mph6.1 kmh 30.00 in1015.9 mb 0.00 in0.0 mm 0.00 in0.0 mm 0.00 in0.0 mm
02:30 AM 52.3°F11.3°C 51.2°F10.7°C 96% 3.1 mph NNW5.0 kmh NNW 4.5 mph7.2 kmh 30.00 in1015.9 mb 0.00 in0.0 mm 0.00 in0.0 mm 0.00 in0.0 mm
02:40 AM 52.2°F11.2°C 51.3°F10.7°C 97% 3.1 mph NNW5.0 kmh NNW 4.5 mph7.2 kmh 30.00 in1015.9 mb 0.00 in0.0 mm 0.00 in0.0 mm 0.00 in0.0 mm
02:50 AM 52.2°F11.2°C 51.3°F10.7°C 97% 2.2 mph NNW3.5 kmh NNW 4.5 mph7.2 kmh 30.00 in1015.9 mb 0.00 in0.0 mm 0.00 in0.0 mm 0.00 in0.0 mm
03:00 AM 52.2°F11.2°C 51.6°F10.9°C 98% 3.1 mph NNW5.0 kmh NNW 6.0 mph9.7 kmh 30.00 in1015.9 mb 0.00 in0.0 mm 0.00 in0.0 mm 0.00 in0.0 mm
03:10 AM 52.2°F11.2°C 51.6°F10.9°C 98% 3.8 mph NNW6.1 kmh NNW 6.0 mph9.7 kmh 29.99 in1015.6 mb 0.00 in0.0 mm 0.00 in0.0 mm 0.00 in0.0 mm
03:20 AM 52.0°F11.1°C 51.4°F10.8°C 98% 2.2 mph NNW3.5 kmh NNW 5.4 mph8.7 kmh 30.00 in1015.9 mb 0.00 in0.0 mm 0.00 in0.0 mm 0.00 in0.0 mm
03:30 AM 51.8°F11.0°C 51.3°F10.7°C 98% 0.7 mph WNW1.1 kmh WNW 3.8 mph6.1 kmh 30.00 in1015.9 mb 0.00 in0.0 mm 0.00 in0.0 mm 0.00 in0.0 mm
03:40 AM 51.8°F11.0°C 51.3°F10.7°C 98% Calm Calm 2.2 mph3.5 kmh 30.01 in1016.3 mb 0.00 in0.0 mm 0.00 in0.0 mm 0.00 in0.0 mm
03:50 AM 52.0°F11.1°C 51.4°F10.8°C 98% 2.2 mph NNE3.5 kmh NNE 3.8 mph6.1 kmh 30.01 in1016.3 mb 0.00 in0.0 mm 0.00 in0.0 mm 0.00 in0.0 mm
04:00 AM 51.8°F11.0°C 51.3°F10.7°C 98% Calm Calm 2.2 mph3.5 kmh 30.01 in1016.3 mb 0.00 in0.0 mm 0.00 in0.0 mm 0.00 in0.0 mm
04:10 AM 52.0°F11.1°C 51.4°F10.8°C 98% Calm Calm -- 30.02 in1016.6 mb 0.00 in0.0 mm 0.00 in0.0 mm 0.00 in0.0 mm
04:20 AM 51.8°F11.0°C 51.3°F10.7°C 98% 1.6 mph NW2.6 kmh NW 4.5 mph7.2 kmh 30.02 in1016.6 mb 0.00 in0.0 mm 0.00 in0.0 mm 0.00 in0.0 mm
04:30 AM 51.8°F11.0°C 51.3°F10.7°C 98% 2.2 mph NNW3.5 kmh NNW 4.5 mph7.2 kmh 30.02 in1016.6 mb 0.00 in0.0 mm 0.00 in0.0 mm 0.00 in0.0 mm
04:40 AM 52.0°F11.1°C 51.4°F10.8°C 98% Calm Calm 3.8 mph6.1 kmh 30.02 in1016.6 mb 0.00 in0.0 mm 0.00 in0.0 mm 0.00 in0.0 mm
04:50 AM 52.2°F11.2°C 51.6°F10.9°C 98% Calm Calm 3.8 mph6.1 kmh 30.02 in1016.6 mb 0.00 in0.0 mm 0.00 in0.0 mm 0.00 in0.0 mm
05:00 AM 52.3°F11.3°C 51.8°F11.0°C 98% 2.2 mph NNW3.5 kmh NNW 5.4 mph8.7 kmh 30.03 in1016.9 mb 0.00 in0.0 mm 0.00 in0.0 mm 0.00 in0.0 mm
05:10 AM 52.5°F11.4°C 52.0°F11.1°C 98% 3.1 mph NNW5.0 kmh NNW 4.5 mph7.2 kmh 30.03 in1016.9 mb 0.00 in0.0 mm 0.00 in0.0 mm 0.00 in0.0 mm
05:20 AM 52.9°F11.6°C 52.3°F11.3°C 98% 3.1 mph NW5.0 kmh NW 4.5 mph7.2 kmh 30.03 in1016.9 mb 0.00 in0.0 mm 0.00 in0.0 mm 0.00 in0.0 mm
05:30 AM 53.2°F11.8°C 52.7°F11.5°C 98% 2.2 mph NNW3.5 kmh NNW 5.4 mph8.7 kmh 30.02 in1016.6 mb 0.00 in0.0 mm 0.00 in0.0 mm 0.00 in0.0 mm
05:40 AM 54.3°F12.4°C 53.5°F11.9°C 97% 2.2 mph NW3.5 kmh NW 4.5 mph7.2 kmh 30.03 in1016.9 mb 0.00 in0.0 mm 0.00 in0.0 mm 0.00 in0.0 mm
05:50 AM 54.7°F12.6°C 53.9°F12.2°C 97% 1.6 mph NW2.6 kmh NW 5.4 mph8.7 kmh 30.02 in1016.6 mb 0.00 in0.0 mm 0.00 in0.0 mm 0.00 in0.0 mm
06:00 AM 55.0°F12.8°C 53.9°F12.2°C 96% 3.1 mph NW5.0 kmh NW 5.4 mph8.7 kmh 30.03 in1016.9 mb 0.00 in0.0 mm 0.00 in0.0 mm 0.00 in0.0 mm
06:10 AM 54.9°F12.7°C 53.5°F11.9°C 95% 3.8 mph NW6.1 kmh NW 6.9 mph11.1 kmh 30.02 in1016.6 mb 0.00 in0.0 mm 0.00 in0.0 mm 0.00 in0.0 mm
06:20 AM 55.2°F12.9°C 54.1°F12.3°C 96% 2.2 mph NW3.5 kmh NW 6.9 mph11.1 kmh 30.03 in1016.9 mb 0.00 in0.0 mm 0.00 in0.0 mm 0.00 in0.0 mm
06:30 AM 55.8°F13.2°C 54.6°F12.6°C 96% 3.1 mph NW5.0 kmh NW 6.0 mph9.7 kmh 30.03 in1016.9 mb 0.00 in0.0 mm 0.00 in0.0 mm 0.00 in0.0 mm
06:40 AM 56.5°F13.6°C 55.1°F12.8°C 95% 3.1 mph NW5.0 kmh NW 5.4 mph8.7 kmh 30.03 in1016.9 mb 0.00 in0.0 mm 0.00 in0.0 mm 0.00 in0.0 mm
06:50 AM 57.0°F13.9°C 55.6°F13.1°C 95% 3.1 mph NW5.0 kmh NW 6.9 mph11.1 kmh 30.03 in1016.9 mb 0.00 in0.0 mm 0.00 in0.0 mm 0.00 in0.0 mm
07:00 AM 57.9°F14.4°C 55.6°F13.1°C 92% 1.6 mph NW2.6 kmh NW 6.0 mph9.7 kmh 30.04 in1017.3 mb 0.00 in0.0 mm 0.00 in0.0 mm 0.00 in0.0 mm
07:10 AM 59.7°F15.4°C 56.5°F13.6°C 89% 3.8 mph NNW6.1 kmh NNW 5.4 mph8.7 kmh 30.03 in1016.9 mb 0.00 in0.0 mm 0.00 in0.0 mm 0.00 in0.0 mm
07:20 AM 60.1°F15.6°C 55.9°F13.3°C 86% 4.5 mph N7.2 kmh N 6.9 mph11.1 kmh 30.04 in1017.3 mb 0.00 in0.0 mm 0.00 in0.0 mm 0.00 in0.0 mm
07:30 AM 62.6°F17.0°C 56.7°F13.7°C 81% 3.8 mph N6.1 kmh N 6.9 mph11.1 kmh 30.04 in1017.3 mb 0.00 in0.0 mm 0.00 in0.0 mm 0.00 in0.0 mm
07:40 AM 64.8°F18.2°C 57.0°F13.9°C 76% 3.1 mph N5.0 kmh N 5.4 mph8.7 kmh 30.05 in1017.6 mb 0.00 in0.0 mm 0.00 in0.0 mm 0.00 in0.0 mm
07:50 AM 64.2°F17.9°C 56.5°F13.6°C 76% 3.1 mph NW5.0 kmh NW 6.9 mph11.1 kmh 30.05 in1017.6 mb 0.00 in0.0 mm 0.00 in0.0 mm 0.00 in0.0 mm
08:00 AM 64.2°F17.9°C 57.9°F14.4°C 80% 2.2 mph NNW3.5 kmh NNW 6.9 mph11.1 kmh 30.05 in1017.6 mb 0.00 in0.0 mm 0.00 in0.0 mm 0.00 in0.0 mm
08:10 AM 65.7°F18.7°C 58.6°F14.8°C 78% 2.2 mph NNE3.5 kmh NNE 5.4 mph8.7 kmh 30.04 in1017.3 mb 0.00 in0.0 mm 0.00 in0.0 mm 0.00 in0.0 mm
08:20 AM 66.6°F19.2°C 58.8°F14.9°C 76% 3.1 mph N5.0 kmh N 6.9 mph11.1 kmh 30.04 in1017.3 mb 0.00 in0.0 mm 0.00 in0.0 mm 0.00 in0.0 mm
08:30 AM 67.5°F19.7°C 59.7°F15.4°C 76% 3.1 mph NW5.0 kmh NW 6.9 mph11.1 kmh 30.04 in1017.3 mb 0.00 in0.0 mm 0.00 in0.0 mm 0.00 in0.0 mm
08:40 AM 70.2°F21.2°C 60.7°F15.9°C 72% 4.5 mph N7.2 kmh N 6.9 mph11.1 kmh 30.04 in1017.3 mb 0.00 in0.0 mm 0.00 in0.0 mm 0.00 in0.0 mm
08:50 AM 70.9°F21.6°C 60.6°F15.9°C 70% 3.1 mph NNW5.0 kmh NNW 6.0 mph9.7 kmh 30.04 in1017.3 mb 0.00 in0.0 mm 0.00 in0.0 mm 0.00 in0.0 mm
09:00 AM 71.4°F21.9°C 59.1°F15.1°C 65% 2.2 mph NNW3.5 kmh NNW 5.4 mph8.7 kmh 30.03 in1016.9 mb 0.00 in0.0 mm 0.00 in0.0 mm 0.00 in0.0 mm
09:10 AM 73.6°F23.1°C 58.4°F14.7°C 59% 1.6 mph NW2.6 kmh NW 5.4 mph8.7 kmh 30.03 in1016.9 mb 0.00 in0.0 mm 0.00 in0.0 mm 0.00 in0.0 mm
09:20 AM 74.1°F23.4°C 58.4°F14.7°C 58% 3.1 mph W5.0 kmh W 5.4 mph8.7 kmh 30.03 in1016.9 mb 0.00 in0.0 mm 0.00 in0.0 mm 0.00 in0.0 mm
09:30 AM 74.8°F23.8°C 61.0°F16.1°C 62% 4.5 mph NW7.2 kmh NW 6.9 mph11.1 kmh 30.04 in1017.3 mb 0.00 in0.0 mm 0.00 in0.0 mm 0.00 in0.0 mm
09:40 AM 71.8°F22.1°C 60.7°F15.9°C 68% 3.8 mph WSW6.1 kmh WSW 6.9 mph11.1 kmh 30.03 in1016.9 mb 0.00 in0.0 mm 0.00 in0.0 mm 0.00 in0.0 mm
09:50 AM 70.7°F21.5°C 60.9°F16.1°C 71% 3.8 mph WNW6.1 kmh WNW 7.6 mph12.2 kmh 30.03 in1016.9 mb 0.00 in0.0 mm 0.00 in0.0 mm 0.00 in0.0 mm
10:00 AM 71.1°F21.7°C 60.8°F16.0°C 70% 6.0 mph SW9.7 kmh SW 7.6 mph12.2 kmh 30.03 in1016.9 mb 0.00 in0.0 mm 0.00 in0.0 mm 0.00 in0.0 mm
10:10 AM 69.6°F20.9°C 61.0°F16.1°C 74% 3.8 mph NW6.1 kmh NW 7.6 mph12.2 kmh 30.02 in1016.6 mb 0.00 in0.0 mm 0.00 in0.0 mm 0.00 in0.0 mm
10:20 AM 70.9°F21.6°C 61.8°F16.6°C 73% 5.4 mph SW8.7 kmh SW 6.9 mph11.1 kmh 30.02 in1016.6 mb 0.00 in0.0 mm 0.00 in0.0 mm 0.00 in0.0 mm
10:30 AM 71.4°F21.9°C 62.0°F16.7°C 72% 6.9 mph W11.1 kmh W 9.2 mph14.8 kmh 30.02 in1016.6 mb 0.00 in0.0 mm 0.00 in0.0 mm 0.00 in0.0 mm
10:40 AM 70.7°F21.5°C 60.9°F16.1°C 71% 6.9 mph N11.1 kmh N 8.3 mph13.4 kmh 30.02 in1016.6 mb 0.00 in0.0 mm 0.00 in0.0 mm 0.00 in0.0 mm
10:50 AM 70.9°F21.6°C 61.8°F16.6°C 73% 4.5 mph WNW7.2 kmh WNW 8.3 mph13.4 kmh 30.02 in1016.6 mb 0.00 in0.0 mm 0.00 in0.0 mm 0.00 in0.0 mm
11:00 AM 71.4°F21.9°C 61.2°F16.2°C 70% 6.9 mph W11.1 kmh W 8.3 mph13.4 kmh 30.02 in1016.6 mb 0.00 in0.0 mm 0.00 in0.0 mm 0.00 in0.0 mm
11:10 AM 72.0°F22.2°C 60.4°F15.8°C 67% 3.8 mph WSW6.1 kmh WSW 9.2 mph14.8 kmh 30.01 in1016.3 mb 0.00 in0.0 mm 0.00 in0.0 mm 0.00 in0.0 mm
11:20 AM 73.0°F22.8°C 58.4°F14.7°C 60% 6.9 mph S11.1 kmh S 9.2 mph14.8 kmh 30.01 in1016.3 mb 0.00 in0.0 mm 0.00 in0.0 mm 0.00 in0.0 mm
11:30 AM 72.5°F22.5°C 58.3°F14.6°C 61% 3.8 mph NW6.1 kmh NW 9.2 mph14.8 kmh 30.01 in1016.3 mb 0.00 in0.0 mm 0.00 in0.0 mm 0.00 in0.0 mm
11:40 AM 72.7°F22.6°C 59.4°F15.2°C 63% 6.0 mph SE9.7 kmh SE 8.3 mph13.4 kmh 30.00 in1015.9 mb 0.00 in0.0 mm 0.00 in0.0 mm 0.00 in0.0 mm
11:50 AM 71.8°F22.1°C 58.5°F14.7°C 63% 6.9 mph SE11.1 kmh SE 13.6 mph21.9 kmh 30.00 in1015.9 mb 0.00 in0.0 mm 0.00 in0.0 mm 0.00 in0.0 mm
12:00 PM 69.6°F20.9°C 58.6°F14.8°C 68% 5.4 mph SE8.7 kmh SE 12.1 mph19.5 kmh 30.00 in1015.9 mb 0.00 in0.0 mm 0.00 in0.0 mm 0.00 in0.0 mm
12:10 PM 71.1°F21.7°C 60.4°F15.8°C 69% 4.5 mph SE7.2 kmh SE 9.8 mph15.8 kmh 29.99 in1015.6 mb 0.00 in0.0 mm 0.00 in0.0 mm 0.00 in0.0 mm
12:20 PM 72.0°F22.2°C 57.8°F14.3°C 61% 5.4 mph E8.7 kmh E 9.2 mph14.8 kmh 29.99 in1015.6 mb 0.00 in0.0 mm 0.00 in0.0 mm 0.00 in0.0 mm
12:30 PM 73.0°F22.8°C 56.4°F13.6°C 56% 5.4 mph SE8.7 kmh SE 10.7 mph17.2 kmh 29.98 in1015.2 mb 0.00 in0.0 mm 0.00 in0.0 mm 0.00 in0.0 mm
12:40 PM 73.0°F22.8°C 54.9°F12.7°C 53% 5.4 mph SE8.7 kmh SE 9.2 mph14.8 kmh 29.98 in1015.2 mb 0.00 in0.0 mm 0.00 in0.0 mm 0.00 in0.0 mm
12:50 PM 72.9°F22.7°C 56.3°F13.5°C 56% 6.0 mph SSE9.7 kmh SSE 9.2 mph14.8 kmh 29.98 in1015.2 mb 0.00 in0.0 mm 0.00 in0.0 mm 0.00 in0.0 mm
01:00 PM 72.7°F22.6°C 56.6°F13.7°C 57% 3.8 mph SSW6.1 kmh SSW 9.8 mph15.8 kmh 29.98 in1015.2 mb 0.00 in0.0 mm 0.00 in0.0 mm 0.00 in0.0 mm
01:10 PM 72.0°F22.2°C 56.9°F13.8°C 59% 3.1 mph ESE5.0 kmh ESE 8.3 mph13.4 kmh 29.97 in1014.9 mb 0.00 in0.0 mm 0.00 in0.0 mm 0.00 in0.0 mm
01:20 PM 73.6°F23.1°C 58.9°F14.9°C 60% 3.1 mph WSW5.0 kmh WSW 9.2 mph14.8 kmh 29.97 in1014.9 mb 0.00 in0.0 mm 0.00 in0.0 mm 0.00 in0.0 mm
01:30 PM 74.1°F23.4°C 57.9°F14.4°C 57% 6.9 mph E11.1 kmh E 9.2 mph14.8 kmh 29.96 in1014.6 mb 0.00 in0.0 mm 0.00 in0.0 mm 0.00 in0.0 mm
01:40 PM 72.5°F22.5°C 58.3°F14.6°C 61% 8.3 mph N13.4 kmh N 9.8 mph15.8 kmh 29.96 in1014.6 mb 0.00 in0.0 mm 0.00 in0.0 mm 0.00 in0.0 mm
01:50 PM 73.0°F22.8°C 59.3°F15.2°C 62% 4.5 mph WNW7.2 kmh WNW 9.8 mph15.8 kmh 29.96 in1014.6 mb 0.00 in0.0 mm 0.00 in0.0 mm 0.00 in0.0 mm
02:00 PM 72.9°F22.7°C 58.7°F14.8°C 61% 5.4 mph WSW8.7 kmh WSW 9.8 mph15.8 kmh 29.96 in1014.6 mb 0.00 in0.0 mm 0.00 in0.0 mm 0.00 in0.0 mm
02:10 PM 73.9°F23.3°C 58.3°F14.6°C 58% 4.5 mph WSW7.2 kmh WSW 7.6 mph12.2 kmh 29.96 in1014.6 mb 0.00 in0.0 mm 0.00 in0.0 mm 0.00 in0.0 mm
02:20 PM 74.3°F23.5°C 59.1°F15.1°C 59% 4.5 mph WNW7.2 kmh WNW 7.6 mph12.2 kmh 29.96 in1014.6 mb 0.00 in0.0 mm 0.00 in0.0 mm 0.00 in0.0 mm
02:30 PM 74.3°F23.5°C 59.5°F15.3°C 60% 6.0 mph SW9.7 kmh SW 9.2 mph14.8 kmh 29.96 in1014.6 mb 0.00 in0.0 mm 0.00 in0.0 mm 0.00 in0.0 mm
02:40 PM 73.6°F23.1°C 58.4°F14.7°C 59% 5.4 mph NE8.7 kmh NE 9.2 mph14.8 kmh 29.95 in1014.2 mb 0.00 in0.0 mm 0.00 in0.0 mm 0.00 in0.0 mm
02:50 PM 73.2°F22.9°C 59.0°F15.0°C 61% 3.8 mph NW6.1 kmh NW 9.2 mph14.8 kmh 29.95 in1014.2 mb 0.00 in0.0 mm 0.00 in0.0 mm 0.00 in0.0 mm
03:00 PM 73.8°F23.2°C 58.1°F14.5°C 58% 5.4 mph N8.7 kmh N 9.2 mph14.8 kmh 29.94 in1013.9 mb 0.00 in0.0 mm 0.00 in0.0 mm 0.00 in0.0 mm
03:10 PM 74.5°F23.6°C 56.3°F13.5°C 53% 6.0 mph WSW9.7 kmh WSW 9.2 mph14.8 kmh 29.94 in1013.9 mb 0.00 in0.0 mm 0.00 in0.0 mm 0.00 in0.0 mm
03:20 PM 75.2°F24.0°C 57.4°F14.1°C 54% 5.4 mph N8.7 kmh N 7.6 mph12.2 kmh 29.94 in1013.9 mb 0.00 in0.0 mm 0.00 in0.0 mm 0.00 in0.0 mm
03:30 PM 75.9°F24.4°C 61.1°F16.2°C 60% 4.5 mph N7.2 kmh N 7.6 mph12.2 kmh 29.93 in1013.5 mb 0.00 in0.0 mm 0.00 in0.0 mm 0.00 in0.0 mm
03:40 PM 76.5°F24.7°C 60.6°F15.9°C 58% 6.0 mph S9.7 kmh S 8.3 mph13.4 kmh 29.92 in1013.2 mb 0.00 in0.0 mm 0.00 in0.0 mm 0.00 in0.0 mm
03:50 PM 76.3°F24.6°C 60.5°F15.8°C 58% 3.8 mph NNW6.1 kmh NNW 7.6 mph12.2 kmh 29.92 in1013.2 mb 0.00 in0.0 mm 0.00 in0.0 mm 0.00 in0.0 mm
04:00 PM 77.0°F25.0°C 60.6°F15.9°C 57% 6.9 mph WNW11.1 kmh WNW 9.2 mph14.8 kmh 29.92 in1013.2 mb 0.00 in0.0 mm 0.00 in0.0 mm 0.00 in0.0 mm
04:10 PM 75.9°F24.4°C 61.1°F16.2°C 60% 3.1 mph N5.0 kmh N 10.7 mph17.2 kmh 29.91 in1012.9 mb 0.00 in0.0 mm 0.00 in0.0 mm 0.00 in0.0 mm
04:20 PM 76.8°F24.9°C 60.0°F15.6°C 56% 2.2 mph SW3.5 kmh SW 9.2 mph14.8 kmh 29.91 in1012.9 mb 0.00 in0.0 mm 0.00 in0.0 mm 0.00 in0.0 mm
04:30 PM 80.1°F26.7°C 56.2°F13.4°C 44% 1.6 mph SE2.6 kmh SE 5.4 mph8.7 kmh 29.91 in1012.9 mb 0.00 in0.0 mm 0.00 in0.0 mm 0.00 in0.0 mm
04:40 PM 79.9°F26.6°C 56.7°F13.7°C 45% 2.2 mph SE3.5 kmh SE 6.9 mph11.1 kmh 29.90 in1012.5 mb 0.00 in0.0 mm 0.00 in0.0 mm 0.00 in0.0 mm
04:50 PM 78.1°F25.6°C 59.1°F15.1°C 52% 3.8 mph WSW6.1 kmh WSW 7.6 mph12.2 kmh 29.90 in1012.5 mb 0.00 in0.0 mm 0.00 in0.0 mm 0.00 in0.0 mm
05:00 PM 75.0°F23.9°C 62.1°F16.7°C 64% 3.8 mph SW6.1 kmh SW 6.9 mph11.1 kmh 29.90 in1012.5 mb 0.00 in0.0 mm 0.00 in0.0 mm 0.00 in0.0 mm
05:10 PM 73.4°F23.0°C 62.2°F16.8°C 68% 3.8 mph WSW6.1 kmh WSW 8.3 mph13.4 kmh 29.90 in1012.5 mb 0.00 in0.0 mm 0.00 in0.0 mm 0.00 in0.0 mm
05:20 PM 74.5°F23.6°C 63.7°F17.6°C 69% 4.5 mph N7.2 kmh N 7.6 mph12.2 kmh 29.90 in1012.5 mb 0.00 in0.0 mm 0.00 in0.0 mm 0.00 in0.0 mm
05:30 PM 76.3°F24.6°C 63.2°F17.3°C 64% 2.2 mph SE3.5 kmh SE 8.3 mph13.4 kmh 29.90 in1012.5 mb 0.00 in0.0 mm 0.00 in0.0 mm 0.00 in0.0 mm
05:40 PM 77.5°F25.3°C 61.6°F16.4°C 58% 3.1 mph SSW5.0 kmh SSW 6.0 mph9.7 kmh 29.90 in1012.5 mb 0.00 in0.0 mm 0.00 in0.0 mm 0.00 in0.0 mm
05:50 PM 79.2°F26.2°C 61.1°F16.2°C 54% 3.1 mph SSW5.0 kmh SSW 5.4 mph8.7 kmh 29.90 in1012.5 mb 0.00 in0.0 mm 0.00 in0.0 mm 0.00 in0.0 mm
06:00 PM 79.0°F26.1°C 60.4°F15.8°C 53% 2.2 mph N3.5 kmh N 4.5 mph7.2 kmh 29.89 in1012.2 mb 0.00 in0.0 mm 0.00 in0.0 mm 0.00 in0.0 mm
06:10 PM 80.2°F26.8°C 59.4°F15.2°C 49% 1.6 mph SW2.6 kmh SW 3.8 mph6.1 kmh 29.89 in1012.2 mb 0.00 in0.0 mm 0.00 in0.0 mm 0.00 in0.0 mm
06:20 PM 79.5°F26.4°C 60.4°F15.8°C 52% 2.2 mph WSW3.5 kmh WSW 3.8 mph6.1 kmh 29.89 in1012.2 mb 0.00 in0.0 mm 0.00 in0.0 mm 0.00 in0.0 mm
06:30 PM 77.9°F25.5°C 62.0°F16.7°C 58% 1.6 mph WSW2.6 kmh WSW 3.8 mph6.1 kmh 29.89 in1012.2 mb 0.00 in0.0 mm 0.00 in0.0 mm 0.00 in0.0 mm
06:40 PM 79.0°F26.1°C 62.0°F16.7°C 56% Calm Calm 3.1 mph5.0 kmh 29.89 in1012.2 mb 0.00 in0.0 mm 0.00 in0.0 mm 0.00 in0.0 mm
06:50 PM 75.6°F24.2°C 62.1°F16.7°C 63% 1.6 mph WSW2.6 kmh WSW 3.1 mph5.0 kmh 29.89 in1012.2 mb 0.00 in0.0 mm 0.00 in0.0 mm 0.00 in0.0 mm
07:00 PM 73.9°F23.3°C 62.3°F16.8°C 67% 2.2 mph SW3.5 kmh SW 3.1 mph5.0 kmh 29.89 in1012.2 mb 0.00 in0.0 mm 0.00 in0.0 mm 0.00 in0.0 mm
07:10 PM 71.4°F21.9°C 61.6°F16.4°C 71% 2.2 mph WSW3.5 kmh WSW 3.8 mph6.1 kmh 29.90 in1012.5 mb 0.00 in0.0 mm 0.00 in0.0 mm 0.00 in0.0 mm
07:20 PM 68.9°F20.5°C 61.0°F16.1°C 76% Calm Calm 3.1 mph5.0 kmh 29.90 in1012.5 mb 0.00 in0.0 mm 0.00 in0.0 mm 0.00 in0.0 mm
07:30 PM 68.2°F20.1°C 60.7°F15.9°C 77% 2.2 mph NW3.5 kmh NW 3.1 mph5.0 kmh 29.90 in1012.5 mb 0.00 in0.0 mm 0.00 in0.0 mm 0.00 in0.0 mm
07:40 PM 67.5°F19.7°C 61.1°F16.2°C 80% Calm Calm 3.1 mph5.0 kmh 29.90 in1012.5 mb 0.00 in0.0 mm 0.00 in0.0 mm 0.00 in0.0 mm
07:50 PM 66.7°F19.3°C 60.7°F15.9°C 81% Calm Calm -- 29.90 in1012.5 mb 0.00 in0.0 mm 0.00 in0.0 mm 0.00 in0.0 mm
08:00 PM 66.2°F19.0°C 60.6°F15.9°C 82% Calm Calm -- 29.90 in1012.5 mb 0.00 in0.0 mm 0.00 in0.0 mm 0.00 in0.0 mm
08:10 PM 66.0°F18.9°C 61.4°F16.3°C 85% 1.6 mph E2.6 kmh E 3.1 mph5.0 kmh 29.89 in1012.2 mb 0.00 in0.0 mm 0.00 in0.0 mm 0.00 in0.0 mm
08:20 PM 66.0°F18.9°C 61.4°F16.3°C 85% Calm Calm 3.1 mph5.0 kmh 29.90 in1012.5 mb 0.00 in0.0 mm 0.00 in0.0 mm 0.00 in0.0 mm
08:30 PM 65.8°F18.8°C 61.6°F16.4°C 86% Calm Calm 1.6 mph2.6 kmh 29.90 in1012.5 mb 0.00 in0.0 mm 0.00 in0.0 mm 0.00 in0.0 mm
08:40 PM 65.7°F18.7°C 61.7°F16.5°C 87% Calm Calm -- 29.90 in1012.5 mb 0.00 in0.0 mm 0.00 in0.0 mm 0.00 in0.0 mm
08:50 PM 65.3°F18.5°C 62.3°F16.8°C 90% Calm Calm 3.1 mph5.0 kmh 29.91 in1012.9 mb 0.00 in0.0 mm 0.00 in0.0 mm 0.00 in0.0 mm
09:00 PM 65.1°F18.4°C 62.5°F16.9°C 91% Calm Calm 4.5 mph7.2 kmh 29.91 in1012.9 mb 0.00 in0.0 mm 0.00 in0.0 mm 0.00 in0.0 mm
09:10 PM 64.6°F18.1°C 62.2°F16.8°C 92% 1.6 mph SE2.6 kmh SE 2.2 mph3.5 kmh 29.91 in1012.9 mb 0.00 in0.0 mm 0.00 in0.0 mm 0.00 in0.0 mm
09:20 PM 64.4°F18.0°C 62.4°F16.9°C 93% Calm Calm 2.2 mph3.5 kmh 29.90 in1012.5 mb 0.00 in0.0 mm 0.00 in0.0 mm 0.00 in0.0 mm
09:30 PM 64.2°F17.9°C 62.2°F16.8°C 93% Calm Calm -- 29.90 in1012.5 mb 0.00 in0.0 mm 0.00 in0.0 mm 0.00 in0.0 mm
09:40 PM 63.7°F17.6°C 61.6°F16.4°C 93% Calm Calm -- 29.89 in1012.2 mb 0.00 in0.0 mm 0.00 in0.0 mm 0.00 in0.0 mm
09:50 PM 63.5°F17.5°C 61.5°F16.4°C 93% Calm Calm -- 29.90 in1012.5 mb 0.00 in0.0 mm 0.00 in0.0 mm 0.00 in0.0 mm
10:00 PM 63.1°F17.3°C 61.7°F16.5°C 95% Calm Calm -- 29.90 in1012.5 mb 0.00 in0.0 mm 0.00 in0.0 mm 0.00 in0.0 mm
10:10 PM 62.8°F17.1°C 61.3°F16.3°C 95% Calm Calm -- 29.90 in1012.5 mb 0.00 in0.0 mm 0.00 in0.0 mm 0.00 in0.0 mm
10:20 PM 62.2°F16.8°C 61.4°F16.3°C 97% Calm Calm -- 29.89 in1012.2 mb 0.00 in0.0 mm 0.00 in0.0 mm 0.00 in0.0 mm
10:30 PM 62.2°F16.8°C 61.4°F16.3°C 97% Calm Calm -- 29.89 in1012.2 mb 0.00 in0.0 mm 0.00 in0.0 mm 0.00 in0.0 mm
10:40 PM 61.9°F16.6°C 61.0°F16.1°C 97% Calm Calm -- 29.89 in1012.2 mb 0.00 in0.0 mm 0.00 in0.0 mm 0.00 in0.0 mm
10:50 PM 61.5°F16.4°C 60.7°F15.9°C 97% Calm Calm -- 29.89 in1012.2 mb 0.00 in0.0 mm 0.00 in0.0 mm 0.00 in0.0 mm
11:00 PM 61.2°F16.2°C 60.3°F15.7°C 97% Calm Calm -- 29.88 in1011.9 mb 0.00 in0.0 mm 0.00 in0.0 mm 0.00 in0.0 mm
11:10 PM 60.8°F16.0°C 60.0°F15.6°C 97% 2.2 mph NNW3.5 kmh NNW 3.8 mph6.1 kmh 29.88 in1011.9 mb 0.00 in0.0 mm 0.00 in0.0 mm 0.00 in0.0 mm
11:20 PM 60.3°F15.7°C 59.7°F15.4°C 98% Calm Calm 3.1 mph5.0 kmh 29.87 in1011.5 mb 0.00 in0.0 mm 0.00 in0.0 mm 0.00 in0.0 mm
11:30 PM 59.9°F15.5°C 59.3°F15.2°C 98% Calm Calm -- 29.87 in1011.5 mb 0.00 in0.0 mm 0.00 in0.0 mm 0.00 in0.0 mm
11:40 PM 59.7°F15.4°C 59.5°F15.3°C 99% Calm Calm -- 29.87 in1011.5 mb 0.00 in0.0 mm 0.00 in0.0 mm 0.00 in0.0 mm
11:50 PM 59.5°F15.3°C 59.3°F15.2°C 99% Calm Calm -- 29.87 in1011.5 mb 0.00 in0.0 mm 0.00 in0.0 mm 0.00 in0.0 mm